VIV9036 MMRX-MMVR
Flight info
| Callsign | VIV9036 |
|---|---|
| Flight time | 1h 22m |
| Altitude | 35000 |
| Route | MMRX/13 N0456F350 IRBID1 REX UJ53 TAM UT61 DURIB DURI1A MMVR/01 |
| Aircraft | A320/M-VGDW/C |
Departure
| Time | 2026-05-06 01:38 |
|---|---|
| Airport | General Lucio Blanco International Airport (MMRX) |
Arrival
| Time | 2026-05-06 03:00 |
|---|---|
| Airport | General Heriberto Jara International Airport (MMVR) |
| Time | Latitude | Longitude | Altitude | Speed | Heading |
|---|---|---|---|---|---|
| 2026-05-06 01:15 | 26.01163 | -98.22784 | 152 ft | 0 kts | 51° |
| 2026-05-06 01:26 | 26.01161 | -98.22787 | 152 ft | 2 kts | 50° |
| 2026-05-06 01:26 | 26.01151 | -98.22800 | 152 ft | 2 kts | 50° |
| 2026-05-06 01:26 | 26.01145 | -98.22815 | 152 ft | 2 kts | 87° |
| 2026-05-06 01:27 | 26.01147 | -98.22831 | 152 ft | 2 kts | 120° |
| 2026-05-06 01:27 | 26.01153 | -98.22839 | 152 ft | 1 kts | 140° |
| 2026-05-06 01:27 | 26.01158 | -98.22843 | 152 ft | 0 kts | 141° |
| 2026-05-06 01:34 | 26.01156 | -98.22842 | 152 ft | 0 kts | 141° |
| 2026-05-06 01:34 | 26.01148 | -98.22834 | 152 ft | 2 kts | 141° |
| 2026-05-06 01:34 | 26.01127 | -98.22825 | 152 ft | 3 kts | 174° |
| 2026-05-06 01:35 | 26.01104 | -98.22832 | 152 ft | 3 kts | 211° |
| 2026-05-06 01:35 | 26.01083 | -98.22854 | 152 ft | 5 kts | 227° |
| 2026-05-06 01:35 | 26.01055 | -98.22889 | 152 ft | 6 kts | 230° |
| 2026-05-06 01:35 | 26.01036 | -98.22941 | 152 ft | 8 kts | 270° |
| 2026-05-06 01:36 | 26.01065 | -98.23009 | 152 ft | 11 kts | 312° |
| 2026-05-06 01:36 | 26.01128 | -98.23071 | 152 ft | 13 kts | 319° |
| 2026-05-06 01:36 | 26.01205 | -98.23139 | 152 ft | 14 kts | 321° |
| 2026-05-06 01:36 | 26.01290 | -98.23214 | 152 ft | 16 kts | 322° |
| 2026-05-06 01:37 | 26.01380 | -98.23292 | 152 ft | 16 kts | 322° |
| 2026-05-06 01:37 | 26.01469 | -98.23342 | 152 ft | 13 kts | 8° |
| 2026-05-06 01:37 | 26.01536 | -98.23380 | 153 ft | 12 kts | 259° |
| 2026-05-06 01:37 | 26.01467 | -98.23377 | 152 ft | 11 kts | 139° |
| 2026-05-06 01:38 | 26.01378 | -98.23296 | 152 ft | 38 kts | 141° |
| 2026-05-06 01:38 | 26.00973 | -98.22928 | 153 ft | 108 kts | 141° |
| 2026-05-06 01:38 | 26.00244 | -98.22269 | 277 ft | 150 kts | 140° |
| 2026-05-06 01:38 | 25.99431 | -98.21516 | 825 ft | 157 kts | 139° |
| 2026-05-06 01:39 | 25.98647 | -98.20709 | 1634 ft | 152 kts | 136° |
| 2026-05-06 01:39 | 25.97900 | -98.19884 | 2359 ft | 153 kts | 137° |
| 2026-05-06 01:39 | 25.97086 | -98.19005 | 2794 ft | 169 kts | 139° |
| 2026-05-06 01:39 | 25.96185 | -98.18063 | 3128 ft | 185 kts | 139° |
| 2026-05-06 01:40 | 25.95191 | -98.17046 | 3458 ft | 202 kts | 139° |
| 2026-05-06 01:40 | 25.94107 | -98.15946 | 3748 ft | 223 kts | 139° |
| 2026-05-06 01:40 | 25.92926 | -98.14753 | 4232 ft | 235 kts | 139° |
| 2026-05-06 01:40 | 25.91706 | -98.13522 | 4855 ft | 240 kts | 142° |
| 2026-05-06 01:41 | 25.90200 | -98.12727 | 5413 ft | 243 kts | 176° |
| 2026-05-06 01:41 | 25.88556 | -98.13097 | 5990 ft | 245 kts | 211° |
| 2026-05-06 01:41 | 25.87235 | -98.14301 | 6489 ft | 251 kts | 229° |
| 2026-05-06 01:41 | 25.86194 | -98.15884 | 7011 ft | 256 kts | 240° |
| 2026-05-06 01:42 | 25.85409 | -98.17667 | 7593 ft | 258 kts | 249° |
| 2026-05-06 01:42 | 25.84752 | -98.19509 | 8166 ft | 259 kts | 243° |
| 2026-05-06 01:42 | 25.83717 | -98.21187 | 8510 ft | 271 kts | 224° |
| 2026-05-06 01:42 | 25.82114 | -98.22349 | 8851 ft | 284 kts | 201° |
| 2026-05-06 01:43 | 25.80148 | -98.22674 | 9382 ft | 290 kts | 178° |
| 2026-05-06 01:43 | 25.78152 | -98.22353 | 9988 ft | 292 kts | 173° |
| 2026-05-06 01:43 | 25.76111 | -98.21979 | 10412 ft | 301 kts | 174° |
| 2026-05-06 01:43 | 25.73968 | -98.21591 | 10665 ft | 315 kts | 174° |
| 2026-05-06 01:44 | 25.71746 | -98.21194 | 10916 ft | 329 kts | 174° |
| 2026-05-06 01:44 | 25.69428 | -98.20779 | 11139 ft | 343 kts | 174° |
| 2026-05-06 01:44 | 25.67035 | -98.20354 | 11362 ft | 356 kts | 174° |
| 2026-05-06 01:44 | 25.64542 | -98.19912 | 11705 ft | 364 kts | 174° |
| 2026-05-06 01:45 | 25.62015 | -98.19460 | 12216 ft | 367 kts | 174° |
| 2026-05-06 01:45 | 25.59479 | -98.19032 | 12766 ft | 368 kts | 176° |
| 2026-05-06 01:45 | 25.56921 | -98.18740 | 13295 ft | 369 kts | 179° |
| 2026-05-06 01:45 | 25.54363 | -98.18483 | 13811 ft | 371 kts | 179° |
| 2026-05-06 01:46 | 25.51764 | -98.18222 | 14300 ft | 373 kts | 179° |
| 2026-05-06 01:46 | 25.49174 | -98.17962 | 14791 ft | 376 kts | 178° |
| 2026-05-06 01:46 | 25.46552 | -98.17699 | 15289 ft | 379 kts | 178° |
| 2026-05-06 01:46 | 25.43906 | -98.17433 | 15741 ft | 382 kts | 178° |
| 2026-05-06 01:47 | 25.41230 | -98.17162 | 16230 ft | 384 kts | 178° |
| 2026-05-06 01:47 | 25.38549 | -98.16890 | 16713 ft | 387 kts | 178° |
| 2026-05-06 01:47 | 25.35848 | -98.16615 | 17173 ft | 389 kts | 178° |
| 2026-05-06 01:47 | 25.33139 | -98.16338 | 17648 ft | 391 kts | 178° |
| 2026-05-06 01:48 | 25.30413 | -98.16062 | 18106 ft | 394 kts | 178° |
| 2026-05-06 01:48 | 25.27672 | -98.15785 | 18544 ft | 397 kts | 178° |
| 2026-05-06 01:48 | 25.24882 | -98.15504 | 18977 ft | 400 kts | 178° |
| 2026-05-06 01:48 | 25.22098 | -98.15221 | 19406 ft | 402 kts | 178° |
| 2026-05-06 01:49 | 25.19296 | -98.14942 | 19858 ft | 404 kts | 178° |
| 2026-05-06 01:49 | 25.16470 | -98.14660 | 20292 ft | 407 kts | 178° |
| 2026-05-06 01:49 | 25.13646 | -98.14381 | 20715 ft | 409 kts | 178° |
| 2026-05-06 01:49 | 25.10789 | -98.14096 | 21125 ft | 412 kts | 178° |
| 2026-05-06 01:50 | 25.07933 | -98.13811 | 21533 ft | 414 kts | 178° |
| 2026-05-06 01:50 | 25.05036 | -98.13519 | 21962 ft | 416 kts | 178° |
| 2026-05-06 01:50 | 25.02137 | -98.13229 | 22381 ft | 418 kts | 178° |
| 2026-05-06 01:50 | 24.99227 | -98.12937 | 22798 ft | 420 kts | 178° |
| 2026-05-06 01:51 | 24.96804 | -98.12695 | 23143 ft | 421 kts | 178° |
| 2026-05-06 01:51 | 24.93868 | -98.12402 | 23524 ft | 423 kts | 178° |
| 2026-05-06 01:51 | 24.90935 | -98.12110 | 23879 ft | 426 kts | 178° |
| 2026-05-06 01:51 | 24.87939 | -98.11811 | 24236 ft | 428 kts | 178° |
| 2026-05-06 01:52 | 24.84967 | -98.11516 | 24599 ft | 430 kts | 178° |
| 2026-05-06 01:52 | 24.81959 | -98.11214 | 24953 ft | 432 kts | 178° |
| 2026-05-06 01:52 | 24.78930 | -98.10912 | 25274 ft | 435 kts | 178° |
| 2026-05-06 01:52 | 24.75905 | -98.10609 | 25613 ft | 436 kts | 178° |
| 2026-05-06 01:53 | 24.72844 | -98.10302 | 25961 ft | 438 kts | 178° |
| 2026-05-06 01:53 | 24.69795 | -98.09995 | 26280 ft | 439 kts | 178° |
| 2026-05-06 01:53 | 24.66757 | -98.09692 | 26621 ft | 440 kts | 178° |
| 2026-05-06 01:53 | 24.63674 | -98.09381 | 27039 ft | 439 kts | 179° |
| 2026-05-06 01:54 | 24.60659 | -98.09079 | 27439 ft | 438 kts | 178° |
| 2026-05-06 01:54 | 24.57596 | -98.08772 | 27865 ft | 437 kts | 179° |
| 2026-05-06 01:54 | 24.54559 | -98.08466 | 28243 ft | 437 kts | 179° |
| 2026-05-06 01:54 | 24.51535 | -98.08165 | 28572 ft | 437 kts | 179° |
| 2026-05-06 01:55 | 24.48495 | -98.07861 | 28946 ft | 437 kts | 179° |
| 2026-05-06 01:55 | 24.45461 | -98.07560 | 29294 ft | 437 kts | 179° |
| 2026-05-06 01:55 | 24.42435 | -98.07259 | 29654 ft | 436 kts | 179° |
| 2026-05-06 01:55 | 24.39405 | -98.06957 | 30047 ft | 435 kts | 179° |
| 2026-05-06 01:56 | 24.36389 | -98.06655 | 30446 ft | 433 kts | 179° |
| 2026-05-06 01:56 | 24.33390 | -98.06354 | 30846 ft | 431 kts | 179° |
| 2026-05-06 01:56 | 24.30381 | -98.06054 | 31193 ft | 431 kts | 179° |
| 2026-05-06 01:56 | 24.27404 | -98.05758 | 31547 ft | 430 kts | 179° |
| 2026-05-06 01:57 | 24.24384 | -98.05458 | 31862 ft | 430 kts | 179° |
| 2026-05-06 01:57 | 24.21390 | -98.05164 | 32165 ft | 430 kts | 179° |
| 2026-05-06 01:57 | 24.18431 | -98.04873 | 32476 ft | 429 kts | 179° |
| 2026-05-06 01:57 | 24.15445 | -98.04579 | 32780 ft | 428 kts | 179° |
| 2026-05-06 01:58 | 24.12477 | -98.04285 | 33127 ft | 427 kts | 179° |
| 2026-05-06 01:58 | 24.09520 | -98.03994 | 33451 ft | 427 kts | 179° |
| 2026-05-06 01:58 | 24.06545 | -98.03701 | 33736 ft | 427 kts | 179° |
| 2026-05-06 01:58 | 24.03547 | -98.03404 | 33995 ft | 427 kts | 179° |
| 2026-05-06 01:59 | 24.00595 | -98.03114 | 34234 ft | 428 kts | 179° |
| 2026-05-06 01:59 | 23.97618 | -98.02821 | 34450 ft | 429 kts | 179° |
| 2026-05-06 01:59 | 23.94657 | -98.02528 | 34707 ft | 428 kts | 179° |
| 2026-05-06 01:59 | 23.91662 | -98.02231 | 34742 ft | 429 kts | 179° |
| 2026-05-06 02:00 | 23.85721 | -98.01646 | 34760 ft | 429 kts | 178° |
| 2026-05-06 02:00 | 23.79754 | -98.01057 | 34768 ft | 428 kts | 178° |
| 2026-05-06 02:01 | 23.73786 | -98.00471 | 34771 ft | 429 kts | 178° |
| 2026-05-06 02:01 | 23.67808 | -97.99882 | 34781 ft | 429 kts | 178° |
| 2026-05-06 02:02 | 23.61828 | -97.99293 | 34787 ft | 429 kts | 178° |
| 2026-05-06 02:02 | 23.55870 | -97.98707 | 34785 ft | 429 kts | 178° |
| 2026-05-06 02:03 | 23.49921 | -97.98123 | 34784 ft | 429 kts | 178° |
| 2026-05-06 02:03 | 23.43912 | -97.97535 | 34785 ft | 430 kts | 178° |
| 2026-05-06 02:04 | 23.37956 | -97.96950 | 34789 ft | 430 kts | 178° |
| 2026-05-06 02:04 | 23.31971 | -97.96361 | 34791 ft | 430 kts | 178° |
| 2026-05-06 02:05 | 23.25971 | -97.95770 | 34793 ft | 430 kts | 178° |
| 2026-05-06 02:05 | 23.20020 | -97.95187 | 34793 ft | 430 kts | 178° |
| 2026-05-06 02:06 | 23.14034 | -97.94607 | 34794 ft | 430 kts | 178° |
| 2026-05-06 02:06 | 23.08034 | -97.94023 | 34802 ft | 431 kts | 178° |
| 2026-05-06 02:07 | 23.02028 | -97.93436 | 34810 ft | 431 kts | 178° |
| 2026-05-06 02:07 | 22.96036 | -97.92851 | 34819 ft | 432 kts | 178° |
| 2026-05-06 02:08 | 22.90008 | -97.92261 | 34821 ft | 431 kts | 178° |
| 2026-05-06 02:08 | 22.84037 | -97.91679 | 34808 ft | 430 kts | 177° |
| 2026-05-06 02:09 | 22.78061 | -97.91102 | 34794 ft | 430 kts | 177° |
| 2026-05-06 02:09 | 22.72085 | -97.90525 | 34786 ft | 430 kts | 177° |
| 2026-05-06 02:10 | 22.66115 | -97.89951 | 34781 ft | 430 kts | 177° |
| 2026-05-06 02:10 | 22.60085 | -97.89371 | 34778 ft | 430 kts | 177° |
| 2026-05-06 02:11 | 22.54113 | -97.88794 | 34773 ft | 430 kts | 177° |
| 2026-05-06 02:11 | 22.48131 | -97.88216 | 34765 ft | 430 kts | 177° |
| 2026-05-06 02:12 | 22.42178 | -97.87638 | 34767 ft | 429 kts | 177° |
| 2026-05-06 02:12 | 22.36375 | -97.87036 | 34757 ft | 429 kts | 175° |
| 2026-05-06 02:13 | 22.30456 | -97.85825 | 34758 ft | 431 kts | 168° |
| 2026-05-06 02:13 | 22.24722 | -97.83849 | 34761 ft | 434 kts | 161° |
| 2026-05-06 02:14 | 22.19171 | -97.81118 | 34765 ft | 435 kts | 156° |
| 2026-05-06 02:14 | 22.13754 | -97.78179 | 34762 ft | 435 kts | 155° |
| 2026-05-06 02:15 | 22.08333 | -97.75242 | 34760 ft | 435 kts | 156° |
| 2026-05-06 02:15 | 22.02916 | -97.72316 | 34761 ft | 434 kts | 156° |
| 2026-05-06 02:16 | 21.97501 | -97.69395 | 34762 ft | 434 kts | 155° |
| 2026-05-06 02:16 | 21.92075 | -97.66473 | 34762 ft | 434 kts | 155° |
| 2026-05-06 02:17 | 21.86639 | -97.63563 | 34760 ft | 435 kts | 156° |
| 2026-05-06 02:17 | 21.81213 | -97.60665 | 34760 ft | 435 kts | 155° |
| 2026-05-06 02:18 | 21.75768 | -97.57748 | 34760 ft | 435 kts | 155° |
| 2026-05-06 02:18 | 21.70340 | -97.54836 | 34756 ft | 435 kts | 155° |
| 2026-05-06 02:19 | 21.64916 | -97.51927 | 34753 ft | 435 kts | 155° |
| 2026-05-06 02:19 | 21.59503 | -97.49028 | 34756 ft | 434 kts | 155° |
| 2026-05-06 02:20 | 21.51369 | -97.44675 | 34760 ft | 435 kts | 155° |
| 2026-05-06 02:21 | 21.45926 | -97.41764 | 34763 ft | 435 kts | 155° |
| 2026-05-06 02:21 | 21.40493 | -97.38860 | 34760 ft | 435 kts | 155° |
| 2026-05-06 02:22 | 21.35069 | -97.35964 | 34760 ft | 435 kts | 155° |
| 2026-05-06 02:22 | 21.29649 | -97.33058 | 34764 ft | 435 kts | 155° |
| 2026-05-06 02:23 | 21.24213 | -97.30135 | 34768 ft | 435 kts | 156° |
| 2026-05-06 02:23 | 21.18800 | -97.27242 | 34770 ft | 434 kts | 156° |
| 2026-05-06 02:24 | 21.13392 | -97.24361 | 34769 ft | 434 kts | 156° |
| 2026-05-06 02:24 | 21.07967 | -97.21475 | 34772 ft | 434 kts | 156° |
| 2026-05-06 02:25 | 21.02546 | -97.18595 | 34774 ft | 435 kts | 155° |
| 2026-05-06 02:25 | 20.97101 | -97.15705 | 34775 ft | 435 kts | 156° |
| 2026-05-06 02:26 | 20.91667 | -97.12823 | 34777 ft | 435 kts | 155° |
| 2026-05-06 02:26 | 20.86264 | -97.09967 | 34781 ft | 435 kts | 155° |
| 2026-05-06 02:27 | 20.80835 | -97.07104 | 34782 ft | 435 kts | 155° |
| 2026-05-06 02:27 | 20.75364 | -97.04212 | 34781 ft | 434 kts | 155° |
| 2026-05-06 02:28 | 20.69958 | -97.01356 | 34779 ft | 434 kts | 155° |
| 2026-05-06 02:28 | 20.64528 | -96.98486 | 34779 ft | 434 kts | 155° |
| 2026-05-06 02:29 | 20.59094 | -96.95616 | 34784 ft | 435 kts | 155° |
| 2026-05-06 02:29 | 20.53664 | -96.92750 | 34789 ft | 435 kts | 155° |
| 2026-05-06 02:30 | 20.48217 | -96.89876 | 34795 ft | 434 kts | 155° |
| 2026-05-06 02:30 | 20.42768 | -96.87003 | 34794 ft | 435 kts | 155° |
| 2026-05-06 02:31 | 20.37351 | -96.84155 | 34792 ft | 434 kts | 155° |
| 2026-05-06 02:31 | 20.31903 | -96.81303 | 34793 ft | 434 kts | 155° |
| 2026-05-06 02:32 | 20.26473 | -96.78456 | 34793 ft | 434 kts | 155° |
| 2026-05-06 02:32 | 20.21052 | -96.75616 | 34794 ft | 434 kts | 155° |
| 2026-05-06 02:33 | 20.15606 | -96.72742 | 34798 ft | 434 kts | 155° |
| 2026-05-06 02:33 | 20.13799 | -96.71775 | 34684 ft | 433 kts | 154° |
| 2026-05-06 02:34 | 20.05025 | -96.67079 | 33385 ft | 414 kts | 154° |
| 2026-05-06 02:34 | 20.02454 | -96.65704 | 32958 ft | 408 kts | 154° |
| 2026-05-06 02:34 | 19.99955 | -96.64368 | 32569 ft | 403 kts | 154° |
| 2026-05-06 02:34 | 19.97456 | -96.63033 | 32196 ft | 397 kts | 154° |
| 2026-05-06 02:35 | 19.94973 | -96.61710 | 31824 ft | 392 kts | 154° |
| 2026-05-06 02:35 | 19.92572 | -96.60431 | 31465 ft | 386 kts | 154° |
| 2026-05-06 02:35 | 19.90136 | -96.59237 | 31113 ft | 380 kts | 158° |
| 2026-05-06 02:35 | 19.87663 | -96.58225 | 30765 ft | 375 kts | 161° |
| 2026-05-06 02:36 | 19.85179 | -96.57398 | 30421 ft | 369 kts | 164° |
| 2026-05-06 02:36 | 19.82732 | -96.56662 | 30081 ft | 364 kts | 164° |
| 2026-05-06 02:36 | 19.80306 | -96.55934 | 29745 ft | 359 kts | 164° |
| 2026-05-06 02:36 | 19.77922 | -96.55217 | 29413 ft | 354 kts | 164° |
| 2026-05-06 02:37 | 19.75560 | -96.54506 | 29082 ft | 349 kts | 164° |
| 2026-05-06 02:37 | 19.73238 | -96.53805 | 28757 ft | 344 kts | 164° |
| 2026-05-06 02:37 | 19.70921 | -96.53107 | 28387 ft | 341 kts | 163° |
| 2026-05-06 02:37 | 19.68643 | -96.52420 | 27992 ft | 339 kts | 163° |
| 2026-05-06 02:38 | 19.66366 | -96.51733 | 27600 ft | 337 kts | 163° |
| 2026-05-06 02:38 | 19.64130 | -96.51057 | 27208 ft | 334 kts | 163° |
| 2026-05-06 02:38 | 19.61907 | -96.50386 | 26814 ft | 332 kts | 163° |
| 2026-05-06 02:38 | 19.59654 | -96.49706 | 26430 ft | 330 kts | 163° |
| 2026-05-06 02:39 | 19.57468 | -96.49046 | 26063 ft | 327 kts | 163° |
| 2026-05-06 02:39 | 19.55274 | -96.48385 | 25687 ft | 325 kts | 163° |
| 2026-05-06 02:39 | 19.53116 | -96.47735 | 25329 ft | 322 kts | 163° |
| 2026-05-06 02:39 | 19.50956 | -96.47083 | 24939 ft | 321 kts | 162° |
| 2026-05-06 02:40 | 19.48749 | -96.46418 | 24198 ft | 331 kts | 162° |
| 2026-05-06 02:40 | 19.46529 | -96.45748 | 23470 ft | 341 kts | 162° |
| 2026-05-06 02:40 | 19.44230 | -96.45055 | 22719 ft | 344 kts | 162° |
| 2026-05-06 02:40 | 19.41863 | -96.44340 | 21952 ft | 357 kts | 162° |
| 2026-05-06 02:41 | 19.39474 | -96.43621 | 20946 ft | 361 kts | 162° |
| 2026-05-06 02:41 | 19.37063 | -96.42896 | 19973 ft | 362 kts | 162° |
| 2026-05-06 02:41 | 19.34624 | -96.42163 | 18999 ft | 362 kts | 161° |
| 2026-05-06 02:41 | 19.32224 | -96.41443 | 18061 ft | 360 kts | 162° |
| 2026-05-06 02:42 | 19.29841 | -96.40730 | 17121 ft | 359 kts | 162° |
| 2026-05-06 02:42 | 19.27445 | -96.40012 | 16188 ft | 356 kts | 162° |
| 2026-05-06 02:42 | 19.25067 | -96.39298 | 15274 ft | 353 kts | 162° |
| 2026-05-06 02:42 | 19.22738 | -96.38598 | 14442 ft | 347 kts | 162° |
| 2026-05-06 02:43 | 19.20407 | -96.37898 | 13621 ft | 342 kts | 162° |
| 2026-05-06 02:43 | 19.18138 | -96.37217 | 12791 ft | 338 kts | 162° |
| 2026-05-06 02:43 | 19.15901 | -96.36547 | 11981 ft | 334 kts | 162° |
| 2026-05-06 02:43 | 19.13696 | -96.35888 | 11234 ft | 326 kts | 162° |
| 2026-05-06 02:44 | 19.11589 | -96.35261 | 11131 ft | 298 kts | 162° |
| 2026-05-06 02:44 | 19.09601 | -96.34665 | 10985 ft | 295 kts | 162° |
| 2026-05-06 02:44 | 19.07615 | -96.34055 | 10476 ft | 295 kts | 162° |
| 2026-05-06 02:44 | 19.05607 | -96.33440 | 9544 ft | 312 kts | 162° |
| 2026-05-06 02:45 | 19.03486 | -96.32799 | 8604 ft | 318 kts | 163° |
| 2026-05-06 02:45 | 19.01370 | -96.32162 | 7656 ft | 319 kts | 163° |
| 2026-05-06 02:45 | 18.99235 | -96.31511 | 6697 ft | 318 kts | 161° |
| 2026-05-06 02:45 | 18.97350 | -96.30381 | 5715 ft | 317 kts | 134° |
| 2026-05-06 02:46 | 18.96244 | -96.28387 | 4742 ft | 317 kts | 105° |
| 2026-05-06 02:46 | 18.96165 | -96.26057 | 3808 ft | 330 kts | 86° |
| 2026-05-06 02:46 | 18.96321 | -96.23608 | 2906 ft | 337 kts | 88° |
| 2026-05-06 02:46 | 18.96888 | -96.21212 | 2194 ft | 341 kts | 63° |
| 2026-05-06 02:47 | 18.98470 | -96.19432 | 1966 ft | 330 kts | 33° |
| 2026-05-06 02:47 | 19.00621 | -96.18727 | 1957 ft | 315 kts | 4° |
| 2026-05-06 02:47 | 19.02708 | -96.19192 | 1962 ft | 300 kts | 338° |
| 2026-05-06 02:47 | 19.04571 | -96.20027 | 1950 ft | 281 kts | 347° |
| 2026-05-06 02:48 | 19.06467 | -96.20243 | 1933 ft | 261 kts | 5° |
| 2026-05-06 02:48 | 19.08241 | -96.20088 | 1638 ft | 249 kts | 14° |
| 2026-05-06 02:48 | 19.09913 | -96.19756 | 1184 ft | 240 kts | 15° |
| 2026-05-06 02:48 | 19.11552 | -96.19393 | 650 ft | 239 kts | 15° |
| 2026-05-06 02:49 | 19.13172 | -96.19033 | 342 ft | 238 kts | 13° |
| 2026-05-06 02:49 | 19.14806 | -96.18662 | 1074 ft | 236 kts | 16° |
| 2026-05-06 02:49 | 19.16378 | -96.18263 | 1689 ft | 231 kts | 16° |
| 2026-05-06 02:49 | 19.17949 | -96.17953 | 1952 ft | 232 kts | 12° |
| 2026-05-06 02:50 | 19.19592 | -96.17908 | 1987 ft | 236 kts | 348° |
| 2026-05-06 02:50 | 19.21056 | -96.18700 | 2005 ft | 239 kts | 318° |
| 2026-05-06 02:50 | 19.21997 | -96.20136 | 2011 ft | 240 kts | 289° |
| 2026-05-06 02:50 | 19.22202 | -96.21869 | 2009 ft | 240 kts | 259° |
| 2026-05-06 02:51 | 19.21610 | -96.23511 | 2013 ft | 237 kts | 233° |
| 2026-05-06 02:51 | 19.20643 | -96.24918 | 2015 ft | 239 kts | 230° |
| 2026-05-06 02:51 | 19.19637 | -96.26334 | 2010 ft | 238 kts | 231° |
| 2026-05-06 02:51 | 19.18633 | -96.27747 | 1999 ft | 233 kts | 225° |
| 2026-05-06 02:52 | 19.17345 | -96.28676 | 1983 ft | 220 kts | 192° |
| 2026-05-06 02:52 | 19.15829 | -96.28767 | 2027 ft | 218 kts | 173° |
| 2026-05-06 02:52 | 19.14292 | -96.28666 | 2027 ft | 220 kts | 176° |
| 2026-05-06 02:52 | 19.12770 | -96.28682 | 2029 ft | 220 kts | 180° |
| 2026-05-06 02:53 | 19.11221 | -96.28816 | 2025 ft | 219 kts | 184° |
| 2026-05-06 02:53 | 19.09694 | -96.29020 | 2023 ft | 221 kts | 186° |
| 2026-05-06 02:53 | 19.08156 | -96.29269 | 2029 ft | 222 kts | 187° |
| 2026-05-06 02:53 | 19.06626 | -96.29541 | 2035 ft | 224 kts | 187° |
| 2026-05-06 02:54 | 19.05078 | -96.29828 | 2035 ft | 223 kts | 187° |
| 2026-05-06 02:54 | 19.03540 | -96.30118 | 2030 ft | 223 kts | 187° |
| 2026-05-06 02:54 | 19.02004 | -96.30409 | 2028 ft | 223 kts | 187° |
| 2026-05-06 02:54 | 19.00478 | -96.30698 | 2029 ft | 223 kts | 187° |
| 2026-05-06 02:55 | 18.98945 | -96.30988 | 2024 ft | 223 kts | 187° |
| 2026-05-06 02:55 | 18.97388 | -96.31230 | 2019 ft | 222 kts | 176° |
| 2026-05-06 02:55 | 18.95929 | -96.30840 | 1964 ft | 215 kts | 146° |
| 2026-05-06 02:55 | 18.94848 | -96.29771 | 1937 ft | 211 kts | 120° |
| 2026-05-06 02:56 | 18.94350 | -96.28336 | 1902 ft | 210 kts | 95° |
| 2026-05-06 02:56 | 18.94498 | -96.26807 | 1869 ft | 211 kts | 70° |
| 2026-05-06 02:56 | 18.95249 | -96.25467 | 1852 ft | 212 kts | 54° |
| 2026-05-06 02:56 | 18.96195 | -96.24258 | 1832 ft | 213 kts | 50° |
| 2026-05-06 02:57 | 18.97204 | -96.23093 | 1808 ft | 213 kts | 49° |
| 2026-05-06 02:57 | 18.98391 | -96.22159 | 1770 ft | 214 kts | 24° |
| 2026-05-06 02:57 | 18.99839 | -96.21744 | 1767 ft | 217 kts | 13° |
| 2026-05-06 02:57 | 19.01335 | -96.21493 | 1747 ft | 218 kts | 13° |
| 2026-05-06 02:58 | 19.02840 | -96.21223 | 1722 ft | 218 kts | 14° |
| 2026-05-06 02:58 | 19.04287 | -96.20928 | 1766 ft | 203 kts | 15° |
| 2026-05-06 02:58 | 19.05650 | -96.20638 | 1581 ft | 191 kts | 15° |
| 2026-05-06 02:58 | 19.06931 | -96.20368 | 1298 ft | 179 kts | 15° |
| 2026-05-06 02:59 | 19.08107 | -96.20123 | 1061 ft | 165 kts | 15° |
| 2026-05-06 02:59 | 19.09193 | -96.19898 | 846 ft | 150 kts | 15° |
| 2026-05-06 02:59 | 19.10197 | -96.19688 | 683 ft | 143 kts | 15° |
| 2026-05-06 02:59 | 19.11168 | -96.19485 | 480 ft | 142 kts | 15° |
| 2026-05-06 03:00 | 19.12151 | -96.19266 | 296 ft | 143 kts | 16° |
| 2026-05-06 03:00 | 19.13094 | -96.19047 | 116 ft | 131 kts | 13° |
| 2026-05-06 03:00 | 19.13876 | -96.18881 | 98 ft | 81 kts | 12° |
| 2026-05-06 03:00 | 19.14258 | -96.18803 | 94 ft | 36 kts | 11° |
| 2026-05-06 03:01 | 19.14385 | -96.18750 | 92 ft | 17 kts | 75° |
| 2026-05-06 03:01 | 19.14366 | -96.18639 | 91 ft | 9 kts | 103° |
| 2026-05-06 03:01 | 19.14350 | -96.18568 | 91 ft | 10 kts | 103° |
| 2026-05-06 03:01 | 19.14341 | -96.18491 | 91 ft | 11 kts | 89° |
| 2026-05-06 03:02 | 19.14329 | -96.18414 | 89 ft | 4 kts | 103° |
| 2026-05-06 03:02 | 19.14328 | -96.18405 | 89 ft | 0 kts | 103° |
| 2026-05-06 03:02 | 19.14328 | -96.18406 | 89 ft | 0 kts | 103° |